Time;durP1;ratioP1;P1;durP2;ratioP2;P2;SDS_P1;SDS_P2;PMS_P1;PMS_P2;Temp;Humidity;BMP_temperature;BMP_pressure;BME280_temperature;BME280_humidity;BME280_pressure;Samples;Min_cycle;Max_cycle;Signal;HPM_P1;HPM_P2
2023/12/21 00:00:06;;;;;;;1.88;1.20;;;;;;;8.13;100.00;99443.53;7394260;19;20353;-69
2023/12/21 00:02:33;;;;;;;1.80;1.10;;;;;;;8.15;100.00;99433.59;7392283;19;20356;-69
2023/12/21 00:05:00;;;;;;;1.60;1.17;;;;;;;8.14;100.00;99447.81;7392607;19;20488;-69
2023/12/21 00:07:27;;;;;;;2.80;1.10;;;;;;;8.20;100.00;99453.34;7393648;19;20368;-68
2023/12/21 00:09:55;;;;;;;2.50;1.20;;;;;;;8.25;100.00;99429.84;7392076;19;20385;-68
2023/12/21 00:12:22;;;;;;;1.50;1.00;;;;;;;8.26;100.00;99448.09;7394284;19;20380;-68
2023/12/21 00:14:49;;;;;;;1.80;1.00;;;;;;;8.23;100.00;99453.78;7393692;19;20364;-68
2023/12/21 00:17:16;;;;;;;2.35;1.10;;;;;;;8.24;100.00;99455.41;7393387;19;20372;-68
2023/12/21 00:19:43;;;;;;;1.50;1.10;;;;;;;8.26;100.00;99445.47;7389541;19;20725;-69
2023/12/21 00:22:10;;;;;;;1.90;1.20;;;;;;;8.28;100.00;99451.38;7393081;19;20354;-68
2023/12/21 00:24:36;;;;;;;2.78;1.20;;;;;;;8.29;100.00;99454.88;7391639;19;20345;-68
2023/12/21 00:27:03;;;;;;;1.70;1.10;;;;;;;8.33;100.00;99450.81;7392261;19;20360;-69
2023/12/21 00:29:30;;;;;;;1.70;1.10;;;;;;;8.32;100.00;99442.06;7391683;19;20373;-69
2023/12/21 00:31:57;;;;;;;1.52;1.00;;;;;;;8.32;100.00;99441.25;7390241;19;21114;-69
2023/12/21 00:34:23;;;;;;;1.88;1.10;;;;;;;8.33;100.00;99445.53;7393342;19;20360;-69
2023/12/21 00:36:50;;;;;;;1.90;0.90;;;;;;;8.36;100.00;99447.78;7393008;19;20344;-69
2023/12/21 00:39:17;;;;;;;1.42;0.90;;;;;;;8.36;100.00;99463.66;7392932;19;20725;-70
2023/12/21 00:41:44;;;;;;;1.75;1.10;;;;;;;8.37;100.00;99455.53;7393124;19;20691;-71
2023/12/21 00:44:10;;;;;;;1.50;1.10;;;;;;;8.35;100.00;99446.16;7390664;19;20705;-71
2023/12/21 00:46:37;;;;;;;1.67;0.88;;;;;;;8.37;100.00;99444.13;7392114;19;20356;-71
2023/12/21 00:49:04;;;;;;;1.52;0.80;;;;;;;8.36;100.00;99438.03;7393738;19;20333;-71
2023/12/21 00:51:30;;;;;;;1.47;0.93;;;;;;;8.39;100.00;99428.91;7394375;19;20419;-71
2023/12/21 00:53:57;;;;;;;1.48;0.90;;;;;;;8.34;100.00;99413.63;7391231;19;20384;-71
2023/12/21 00:56:24;;;;;;;1.70;0.80;;;;;;;8.31;100.00;99424.59;7393142;19;20348;-71
2023/12/21 00:58:50;;;;;;;1.15;0.80;;;;;;;8.34;100.00;99420.75;7390259;19;20884;-69
2023/12/21 01:01:17;;;;;;;1.70;0.90;;;;;;;8.29;100.00;99415.22;7391896;19;20387;-69
2023/12/21 01:03:43;;;;;;;1.40;0.80;;;;;;;8.34;100.00;99410.19;7389633;19;20696;-69
2023/12/21 01:06:10;;;;;;;1.30;0.75;;;;;;;8.34;100.00;99399.59;7391290;19;20344;-69
2023/12/21 01:08:37;;;;;;;1.38;0.82;;;;;;;8.33;100.00;99398.81;7392697;19;20352;-69
2023/12/21 01:11:03;;;;;;;1.10;0.70;;;;;;;8.35;100.00;99399.44;7392170;19;20705;-69
2023/12/21 01:13:32;;;;;;;1.48;0.80;;;;;;;8.33;100.00;99406.72;7392027;19;20673;-69
2023/12/21 01:15:59;;;;;;;1.23;0.70;;;;;;;8.36;100.00;99400.22;7392469;19;20332;-71
2023/12/21 01:18:25;;;;;;;1.65;0.80;;;;;;;8.34;100.00;99387.22;7390758;19;20451;-70
2023/12/21 01:20:52;;;;;;;1.00;0.60;;;;;;;8.36;100.00;99379.09;7391748;19;20476;-70
2023/12/21 01:23:19;;;;;;;1.03;0.63;;;;;;;8.38;100.00;99392.94;7391418;19;20449;-70
2023/12/21 01:25:49;;;;;;;1.48;0.70;;;;;;;8.39;100.00;99399.84;7389078;19;22880;-70
2023/12/21 01:28:16;;;;;;;1.20;0.60;;;;;;;8.39;100.00;99405.13;7390329;19;20369;-71
2023/12/21 01:30:42;;;;;;;1.17;0.60;;;;;;;8.35;100.00;99398.59;7391397;19;20856;-70
2023/12/21 01:33:09;;;;;;;0.90;0.50;;;;;;;8.35;100.00;99399.44;7392677;19;20713;-70
2023/12/21 01:35:36;;;;;;;0.85;0.52;;;;;;;8.40;100.00;99401.47;7392652;19;20423;-70
2023/12/21 01:38:03;;;;;;;1.23;0.50;;;;;;;8.38;100.00;99385.00;7391411;19;20344;-69
2023/12/21 01:40:29;;;;;;;0.73;0.47;;;;;;;8.37;100.00;99372.78;7389886;19;20360;-69
2023/12/21 01:42:56;;;;;;;0.90;0.50;;;;;;;8.37;100.00;99364.84;7391507;19;20403;-69
2023/12/21 01:45:23;;;;;;;0.98;0.60;;;;;;;8.40;100.00;99359.22;7389809;19;20344;-69
2023/12/21 01:47:51;;;;;;;0.80;0.50;;;;;;;8.38;100.00;99377.88;7388910;19;20372;-69
2023/12/21 01:50:18;;;;;;;0.60;0.40;;;;;;;8.38;100.00;99351.47;7388695;19;20710;-69
2023/12/21 01:52:46;;;;;;;1.85;0.50;;;;;;;8.41;100.00;99345.00;7391501;19;20380;-70
2023/12/21 01:55:14;;;;;;;1.10;0.60;;;;;;;8.44;100.00;99334.06;7392146;19;20344;-70
2023/12/21 01:57:43;;;;;;;0.90;0.50;;;;;;;8.41;100.00;99325.69;7391294;19;20380;-70
2023/12/21 02:00:11;;;;;;;0.90;0.60;;;;;;;8.38;100.00;99329.50;7389345;19;20349;-70
2023/12/21 02:02:38;;;;;;;0.93;0.60;;;;;;;8.44;100.00;99320.84;7390989;19;20344;-70
2023/12/21 02:05:05;;;;;;;2.00;0.80;;;;;;;8.43;100.00;99319.19;7388593;19;20356;-70
2023/12/21 02:07:32;;;;;;;1.23;0.70;;;;;;;8.40;100.00;99324.84;7391188;19;20368;-70
2023/12/21 02:09:58;;;;;;;1.50;0.77;;;;;;;8.44;100.00;99317.41;7393840;19;20336;-70
2023/12/21 02:12:25;;;;;;;1.70;0.73;;;;;;;8.38;100.00;99313.66;7396360;19;20682;-70
2023/12/21 02:14:52;;;;;;;1.40;0.80;;;;;;;8.41;100.00;99299.28;7398580;19;20368;-71
2023/12/21 02:17:20;;;;;;;1.40;0.60;;;;;;;8.46;100.00;99305.59;7396970;19;20404;-70
2023/12/21 02:19:50;;;;;;;1.02;0.60;;;;;;;8.43;100.00;99295.41;7398802;19;20659;-70
2023/12/21 02:22:19;;;;;;;1.13;0.70;;;;;;;8.45;100.00;99296.03;7396763;19;20414;-70
2023/12/21 02:24:46;;;;;;;1.70;0.70;;;;;;;8.45;100.00;99282.81;7397026;19;20402;-70
2023/12/21 02:27:12;;;;;;;1.50;0.70;;;;;;;8.42;100.00;99293.78;7397897;19;20352;-70
2023/12/21 02:29:39;;;;;;;1.45;0.70;;;;;;;8.43;100.00;99270.81;7397830;19;20380;-70
2023/12/21 02:32:06;;;;;;;1.38;0.60;;;;;;;8.45;100.00;99280.19;7396822;19;20351;-70
2023/12/21 02:34:32;;;;;;;1.52;0.68;;;;;;;8.49;100.00;99268.22;7390753;19;20420;-70
2023/12/21 02:37:01;;;;;;;1.60;0.70;;;;;;;8.48;100.00;99250.72;7394499;19;20423;-70
2023/12/21 02:39:28;;;;;;;1.13;0.60;;;;;;;8.47;100.00;99257.00;7397446;19;20348;-70
2023/12/21 02:41:55;;;;;;;1.02;0.70;;;;;;;8.44;100.00;99260.06;7396720;19;20377;-70
2023/12/21 02:44:21;;;;;;;1.10;0.60;;;;;;;8.47;100.00;99243.81;7393437;19;20373;-70
2023/12/21 02:46:48;;;;;;;1.00;0.57;;;;;;;8.50;100.00;99243.44;7396199;19;20990;-69
2023/12/21 02:49:15;;;;;;;0.80;0.50;;;;;;;8.46;100.00;99236.06;7394949;19;20373;-69
2023/12/21 02:51:42;;;;;;;0.93;0.60;;;;;;;8.49;100.00;99247.06;7396785;19;20364;-69
2023/12/21 02:54:08;;;;;;;1.08;0.60;;;;;;;8.52;100.00;99246.69;7392491;19;20776;-69
2023/12/21 02:56:35;;;;;;;1.08;0.55;;;;;;;8.51;100.00;99249.53;7396152;19;20373;-70
2023/12/21 02:59:01;;;;;;;1.20;0.50;;;;;;;8.48;100.00;99234.88;7394623;19;20352;-70
2023/12/21 03:01:28;;;;;;;0.52;0.40;;;;;;;8.52;100.00;99227.34;7396030;19;20369;-69
2023/12/21 03:03:55;;;;;;;1.40;0.40;;;;;;;8.51;100.00;99218.59;7395170;19;20361;-69
2023/12/21 03:06:22;;;;;;;1.98;0.60;;;;;;;8.54;100.00;99212.94;7392886;19;20352;-69
2023/12/21 03:08:48;;;;;;;1.30;0.40;;;;;;;8.55;100.00;99209.28;7395361;19;20389;-69
2023/12/21 03:11:15;;;;;;;0.90;0.40;;;;;;;8.50;100.00;99209.06;7395192;19;20348;-69
2023/12/21 03:13:41;;;;;;;0.70;0.40;;;;;;;8.53;100.00;99211.31;7395029;19;20349;-70
2023/12/21 03:16:09;;;;;;;0.60;0.40;;;;;;;8.55;100.00;99211.91;7395452;19;20324;-69
2023/12/21 03:18:37;;;;;;;1.33;0.30;;;;;;;8.52;100.00;99208.84;7392246;19;20365;-70
2023/12/21 03:21:04;;;;;;;0.77;0.40;;;;;;;8.56;100.00;99199.50;7393702;19;20352;-70
2023/12/21 03:23:34;;;;;;;0.60;0.40;;;;;;;8.56;100.00;99204.78;7393877;19;20356;-70
2023/12/21 03:26:00;;;;;;;0.50;0.30;;;;;;;8.59;100.00;99201.78;7394258;19;20344;-70
2023/12/21 03:28:27;;;;;;;0.90;0.38;;;;;;;8.56;100.00;99173.09;7392809;19;20333;-69
2023/12/21 03:30:54;;;;;;;1.70;0.40;;;;;;;8.59;100.00;99170.06;7394008;19;20686;-69
2023/12/21 03:33:21;;;;;;;0.80;0.40;;;;;;;8.62;100.00;99167.00;7391349;19;20897;-70
2023/12/21 03:35:48;;;;;;;1.23;0.50;;;;;;;8.61;100.00;99156.63;7395640;19;20362;-69
2023/12/21 03:38:15;;;;;;;1.40;0.60;;;;;;;8.58;100.00;99144.63;7394225;19;20333;-69
2023/12/21 03:40:41;;;;;;;0.80;0.40;;;;;;;8.62;100.00;99131.81;7394357;19;20325;-69
2023/12/21 03:43:08;;;;;;;1.20;0.45;;;;;;;8.63;100.00;99134.28;7394726;19;20348;-69
2023/12/21 03:45:39;;;;;;;1.35;0.70;;;;;;;8.63;100.00;99120.22;7394743;19;20341;-69
2023/12/21 03:48:08;;;;;;;0.90;0.50;;;;;;;8.64;100.00;99121.88;7394075;19;20372;-69
2023/12/21 03:50:36;;;;;;;1.35;0.50;;;;;;;8.63;100.00;99113.13;7394146;19;20349;-69
2023/12/21 03:53:03;;;;;;;1.30;0.50;;;;;;;8.61;100.00;99098.47;7393891;19;21320;-70
2023/12/21 03:55:30;;;;;;;0.98;0.52;;;;;;;8.65;100.00;99103.19;7393656;19;20353;-69
2023/12/21 03:57:56;;;;;;;1.58;0.50;;;;;;;8.64;100.00;99106.00;7394040;19;20664;-69
2023/12/21 04:00:23;;;;;;;0.70;0.50;;;;;;;8.63;100.00;99099.91;7391408;19;20367;-69
2023/12/21 04:02:50;;;;;;;0.90;0.32;;;;;;;8.68;100.00;99096.66;7391479;19;20725;-69
2023/12/21 04:05:16;;;;;;;0.80;0.40;;;;;;;8.69;100.00;99093.81;7393142;19;20372;-69
2023/12/21 04:07:43;;;;;;;1.10;0.40;;;;;;;8.71;100.00;99093.59;7392482;19;20945;-69
2023/12/21 04:10:10;;;;;;;1.30;0.43;;;;;;;8.71;100.00;99075.94;7393552;19;20890;-69
2023/12/21 04:12:36;;;;;;;0.70;0.50;;;;;;;8.73;100.00;99073.91;7389667;19;20851;-69
2023/12/21 04:15:04;;;;;;;0.65;0.50;;;;;;;8.75;100.00;99055.16;7392737;19;20378;-69
2023/12/21 04:17:30;;;;;;;0.90;0.50;;;;;;;8.76;100.00;99084.06;7393785;19;20357;-69
2023/12/21 04:19:57;;;;;;;0.93;0.50;;;;;;;8.79;100.00;99056.41;7393585;19;20365;-68
2023/12/21 04:22:24;;;;;;;0.80;0.50;;;;;;;8.81;100.00;99058.84;7392590;19;20337;-68
2023/12/21 04:24:51;;;;;;;0.80;0.40;;;;;;;8.83;100.00;99049.69;7391531;19;20369;-68
2023/12/21 04:27:18;;;;;;;1.00;0.52;;;;;;;8.84;100.00;99039.91;7392688;19;20500;-68
2023/12/21 04:29:44;;;;;;;0.93;0.50;;;;;;;8.84;100.00;99016.94;7385827;19;20364;-68
2023/12/21 04:32:11;;;;;;;1.00;0.60;;;;;;;8.87;100.00;99035.03;7392835;19;20381;-69
2023/12/21 04:34:37;;;;;;;0.90;0.50;;;;;;;8.87;100.00;99019.19;7392317;19;20674;-68
2023/12/21 04:37:04;;;;;;;1.40;0.60;;;;;;;8.89;100.00;99011.84;7390283;19;20405;-68
2023/12/21 04:39:31;;;;;;;1.17;0.60;;;;;;;8.91;100.00;99001.88;7391246;19;20353;-68
2023/12/21 04:41:58;;;;;;;1.60;0.70;;;;;;;8.92;100.00;99014.06;7389403;19;20364;-67
2023/12/21 04:44:25;;;;;;;1.08;0.80;;;;;;;8.89;100.00;99003.91;7391415;19;20665;-68
2023/12/21 04:46:51;;;;;;;1.45;0.80;;;;;;;8.92;100.00;99003.50;7388896;19;20365;-68
2023/12/21 04:49:20;;;;;;;1.48;0.80;;;;;;;8.88;100.00;99001.47;7392933;19;20754;-68
2023/12/21 04:51:47;;;;;;;1.00;0.70;;;;;;;8.89;100.00;99011.84;7387441;19;20377;-67
2023/12/21 04:54:13;;;;;;;2.20;1.00;;;;;;;8.91;100.00;99017.75;7385231;19;20394;-68
2023/12/21 04:56:41;;;;;;;1.13;0.70;;;;;;;8.90;100.00;99010.81;7389778;19;20328;-68
2023/12/21 04:59:08;;;;;;;1.20;0.70;;;;;;;8.94;100.00;99004.09;7386577;19;20981;-67
2023/12/21 05:01:35;;;;;;;0.90;0.60;;;;;;;8.94;100.00;99003.31;7391067;19;20364;-67
2023/12/21 05:04:03;;;;;;;1.30;0.70;;;;;;;8.96;100.00;99004.72;7392373;19;20343;-67
2023/12/21 05:06:29;;;;;;;1.02;0.60;;;;;;;8.95;100.00;98997.00;7390882;19;20876;-67
2023/12/21 05:08:56;;;;;;;1.30;0.60;;;;;;;8.96;100.00;98998.63;7391904;19;20356;-67
2023/12/21 05:11:23;;;;;;;0.95;0.70;;;;;;;8.99;100.00;98995.56;7390821;19;20364;-67
2023/12/21 05:13:49;;;;;;;1.20;0.63;;;;;;;8.99;100.00;98977.06;7388422;19;20703;-67
2023/12/21 05:16:16;;;;;;;1.02;0.50;;;;;;;9.02;100.00;98981.13;7387991;19;20920;-67
2023/12/21 05:18:43;;;;;;;0.80;0.50;;;;;;;9.04;100.00;98952.63;7385872;19;20365;-67
2023/12/21 05:21:09;;;;;;;1.30;0.60;;;;;;;9.02;100.00;98959.97;7389903;19;20365;-67
2023/12/21 05:23:36;;;;;;;0.80;0.60;;;;;;;9.04;100.00;98944.69;7389669;19;20760;-67
2023/12/21 05:26:12;;;;;;;1.00;0.43;;;;;;;9.06;100.00;98946.09;7390216;19;20420;-67
2023/12/21 05:28:44;;;;;;;1.23;0.50;;;;;;;9.06;100.00;98971.75;7390986;19;20415;-66
2023/12/21 05:31:11;;;;;;;0.75;0.40;;;;;;;9.12;100.00;98944.47;7390410;19;20375;-67
2023/12/21 05:33:39;;;;;;;1.05;0.50;;;;;;;9.13;100.00;98940.78;7391623;19;20372;-67
2023/12/21 05:36:06;;;;;;;1.60;0.47;;;;;;;9.15;100.00;98951.97;7392072;19;20344;-67
2023/12/21 05:38:33;;;;;;;0.80;0.50;;;;;;;9.15;100.00;98938.75;7390559;19;20364;-67
2023/12/21 05:40:59;;;;;;;0.90;0.60;;;;;;;9.17;100.00;98931.41;7391223;19;20404;-67
2023/12/21 05:43:26;;;;;;;1.30;0.60;;;;;;;9.21;100.00;98922.03;7392444;19;20360;-67
2023/12/21 05:45:53;;;;;;;0.88;0.50;;;;;;;9.22;100.00;98902.50;7396381;19;20440;-66
2023/12/21 05:48:19;;;;;;;0.70;0.50;;;;;;;9.20;100.00;98915.13;7399413;19;20672;-66
2023/12/21 05:50:46;;;;;;;1.20;0.50;;;;;;;9.23;100.00;98917.38;7398505;19;20422;-66
2023/12/21 05:53:13;;;;;;;0.80;0.50;;;;;;;9.25;100.00;98891.50;7398093;19;21079;-66
2023/12/21 05:55:39;;;;;;;1.30;0.63;;;;;;;9.27;100.00;98899.25;7398463;19;20378;-66
2023/12/21 05:58:06;;;;;;;1.10;0.68;;;;;;;9.22;100.00;98889.25;7400047;19;20356;-66
2023/12/21 06:00:33;;;;;;;1.17;0.60;;;;;;;9.24;100.00;98881.13;7398014;19;20356;-66
2023/12/21 06:03:00;;;;;;;1.25;0.60;;;;;;;9.20;100.00;98878.06;7398228;19;20364;-66
2023/12/21 06:05:26;;;;;;;0.68;0.40;;;;;;;9.14;100.00;98873.66;7397707;19;20891;-66
2023/12/21 06:07:53;;;;;;;1.60;0.40;;;;;;;9.17;100.00;98863.44;7398743;19;20880;-66
2023/12/21 06:10:20;;;;;;;0.80;0.40;;;;;;;9.15;100.00;98875.25;7398740;19;20372;-66
2023/12/21 06:12:46;;;;;;;1.25;0.70;;;;;;;9.18;100.00;98866.94;7396428;19;20364;-66
2023/12/21 06:15:14;;;;;;;0.93;0.30;;;;;;;9.18;100.00;98853.69;7398552;19;20349;-66
2023/12/21 06:17:40;;;;;;;0.68;0.40;;;;;;;9.19;100.00;98837.59;7397354;19;20368;-66
2023/12/21 06:20:08;;;;;;;1.00;0.40;;;;;;;9.18;100.00;98841.28;7398834;19;20365;-66
2023/12/21 06:22:35;;;;;;;1.05;0.30;;;;;;;9.19;100.00;98827.00;7394075;19;20377;-67
2023/12/21 06:25:02;;;;;;;0.70;0.40;;;;;;;9.18;100.00;98817.47;7396763;19;20376;-67
2023/12/21 06:27:29;;;;;;;0.73;0.40;;;;;;;9.20;100.00;98814.59;7394917;19;20872;-66
2023/12/21 06:29:56;;;;;;;1.13;0.28;;;;;;;9.17;100.00;98804.44;7397338;19;20369;-66
2023/12/21 06:32:24;;;;;;;1.10;0.40;;;;;;;9.16;100.00;98797.53;7396865;19;20400;-66
2023/12/21 06:34:51;;;;;;;1.13;0.40;;;;;;;9.17;100.00;98799.16;7396487;19;20369;-66
2023/12/21 06:37:17;;;;;;;0.70;0.40;;;;;;;9.17;100.00;98785.91;7398216;19;20379;-67
2023/12/21 06:39:44;;;;;;;0.50;0.40;;;;;;;9.20;100.00;98777.53;7396633;19;20403;-67
2023/12/21 06:42:11;;;;;;;0.57;0.30;;;;;;;9.16;100.00;98774.53;7397797;19;20856;-67
2023/12/21 06:44:39;;;;;;;0.88;0.40;;;;;;;9.19;100.00;98760.88;7397384;19;20341;-67
2023/12/21 06:47:06;;;;;;;0.93;0.40;;;;;;;9.18;100.00;98758.47;7394901;19;20924;-67
2023/12/21 06:49:33;;;;;;;1.00;0.43;;;;;;;9.17;100.00;98756.81;7397252;19;20365;-67
2023/12/21 06:52:00;;;;;;;0.50;0.40;;;;;;;9.14;100.00;98739.56;7396044;19;20875;-67
2023/12/21 06:54:26;;;;;;;1.35;0.45;;;;;;;9.15;100.00;98743.00;7395075;19;20376;-68
2023/12/21 06:56:53;;;;;;;1.45;0.50;;;;;;;9.14;100.00;98734.25;7393567;19;20358;-67
2023/12/21 06:59:20;;;;;;;1.63;0.70;;;;;;;9.17;100.00;98740.94;7395807;19;20899;-67
2023/12/21 07:01:46;;;;;;;1.23;0.57;;;;;;;9.13;100.00;98702.72;7391512;19;20361;-67
2023/12/21 07:04:13;;;;;;;1.05;0.50;;;;;;;9.11;100.00;98691.53;7392192;19;20915;-67
2023/12/21 07:06:40;;;;;;;1.40;0.60;;;;;;;9.12;100.00;98688.69;7394254;19;20368;-67
2023/12/21 07:09:09;;;;;;;1.55;0.50;;;;;;;9.15;100.00;98674.22;7393222;19;20360;-67
2023/12/21 07:11:35;;;;;;;0.90;0.50;;;;;;;9.17;100.00;98672.16;7395598;19;20368;-67
2023/12/21 07:14:02;;;;;;;1.05;0.52;;;;;;;9.11;100.00;98651.88;7396494;19;20730;-67
2023/12/21 07:16:29;;;;;;;0.73;0.40;;;;;;;9.14;100.00;98648.81;7393514;19;20341;-67
2023/12/21 07:18:56;;;;;;;1.25;0.60;;;;;;;9.16;100.00;98636.19;7392895;19;20349;-67
2023/12/21 07:21:23;;;;;;;1.80;0.60;;;;;;;9.17;100.00;98629.84;7396124;19;20360;-67
2023/12/21 07:23:49;;;;;;;1.98;0.63;;;;;;;9.22;100.00;98615.97;7396441;19;20357;-66
2023/12/21 07:26:16;;;;;;;1.40;0.60;;;;;;;9.26;100.00;98610.03;7394831;19;20699;-67
2023/12/21 07:28:43;;;;;;;0.98;0.60;;;;;;;9.28;100.00;98607.97;7393998;19;20361;-70
2023/12/21 07:31:11;;;;;;;1.17;0.60;;;;;;;9.30;100.00;98602.47;7393807;19;20424;-70
2023/12/21 07:33:38;;;;;;;1.75;0.70;;;;;;;9.34;100.00;98570.06;7396129;19;20391;-70
2023/12/21 07:36:07;;;;;;;1.10;0.70;;;;;;;9.37;100.00;98569.63;7394228;19;20404;-70
2023/12/21 07:38:36;;;;;;;1.58;0.70;;;;;;;9.41;100.00;98545.38;7396150;19;20424;-70
2023/12/21 07:41:03;;;;;;;1.50;0.75;;;;;;;9.45;100.00;98539.41;7393990;19;20373;-70
2023/12/21 07:43:30;;;;;;;1.50;0.82;;;;;;;9.44;100.00;98555.53;7395697;19;20410;-70
2023/12/21 07:45:57;;;;;;;1.42;0.73;;;;;;;9.44;100.00;98523.78;7394415;19;20345;-70
2023/12/21 07:48:24;;;;;;;1.35;0.80;;;;;;;9.43;100.00;98509.72;7394034;19;20385;-69
2023/12/21 07:50:50;;;;;;;1.20;0.80;;;;;;;9.44;100.00;98511.34;7394779;19;20400;-70
2023/12/21 07:53:17;;;;;;;1.20;0.70;;;;;;;9.39;100.00;98505.88;7395308;19;20875;-71
2023/12/21 07:55:43;;;;;;;1.30;0.90;;;;;;;9.46;100.00;98489.97;7393707;19;20345;-71
2023/12/21 07:58:11;;;;;;;1.73;0.95;;;;;;;9.47;100.00;98486.25;7393714;19;20336;-72
2023/12/21 08:00:37;;;;;;;1.80;1.08;;;;;;;9.44;100.00;98492.00;7395678;19;20368;-71
2023/12/21 08:03:04;;;;;;;1.30;0.90;;;;;;;9.40;100.00;98481.06;7393910;19;20408;-71
2023/12/21 08:05:31;;;;;;;1.30;1.00;;;;;;;9.39;100.00;98459.09;7393569;19;20341;-70
2023/12/21 08:07:58;;;;;;;1.57;0.90;;;;;;;9.41;100.00;98455.41;7392286;19;20514;-70
2023/12/21 08:10:24;;;;;;;2.80;1.10;;;;;;;9.37;100.00;98447.91;7393826;19;20879;-70
2023/12/21 08:12:51;;;;;;;1.40;0.80;;;;;;;9.37;100.00;98477.03;7395020;19;20344;-70
2023/12/21 08:15:18;;;;;;;1.20;0.90;;;;;;;9.40;100.00;98449.31;7393560;19;20392;-70
2023/12/21 08:17:47;;;;;;;1.70;0.90;;;;;;;9.43;100.00;98466.56;7393275;19;20767;-70
2023/12/21 08:20:15;;;;;;;1.05;0.70;;;;;;;9.46;100.00;98442.31;7393922;19;20373;-70
2023/12/21 08:22:42;;;;;;;1.80;0.90;;;;;;;9.46;100.00;98443.13;7393365;19;20369;-71
2023/12/21 08:25:08;;;;;;;1.38;0.80;;;;;;;9.51;100.00;98439.81;7392222;19;20336;-71
2023/12/21 08:27:41;;;;;;;1.10;0.73;;;;;;;9.42;100.00;98430.56;7392641;19;20372;-71
2023/12/21 08:30:11;;;;;;;1.50;0.70;;;;;;;9.46;100.00;98407.91;7394084;19;20374;-71
2023/12/21 08:32:38;;;;;;;1.10;0.70;;;;;;;9.42;100.00;98426.06;7394460;19;20461;-71
2023/12/21 08:35:06;;;;;;;1.02;0.52;;;;;;;9.44;100.00;98417.91;7384207;19;20361;-71
2023/12/21 08:37:33;;;;;;;1.55;0.60;;;;;;;9.37;100.00;98412.69;7391731;19;20413;-71
2023/12/21 08:40:00;;;;;;;1.27;0.77;;;;;;;9.37;100.00;98408.22;7392883;19;20379;-71
2023/12/21 08:42:27;;;;;;;1.35;0.52;;;;;;;9.36;100.00;98409.25;7391930;19;20378;-71
2023/12/21 08:44:53;;;;;;;1.40;0.80;;;;;;;9.33;100.00;98443.28;7392352;19;20374;-71
2023/12/21 08:47:20;;;;;;;1.10;0.77;;;;;;;9.31;100.00;98419.69;7390303;19;20356;-71
2023/12/21 08:49:47;;;;;;;1.27;0.70;;;;;;;9.33;100.00;98411.53;7390250;19;20380;-72
2023/12/21 08:52:14;;;;;;;1.15;0.65;;;;;;;9.27;100.00;98418.53;7392677;19;21086;-71
2023/12/21 08:54:41;;;;;;;1.65;0.70;;;;;;;9.24;100.00;98405.72;7383049;19;20854;-70
2023/12/21 08:57:09;;;;;;;1.15;0.70;;;;;;;9.22;100.00;98386.63;7381960;19;20785;-70
2023/12/21 08:59:36;;;;;;;1.30;0.70;;;;;;;9.21;100.00;98389.50;7391794;19;20363;-70
2023/12/21 09:02:03;;;;;;;1.52;0.90;;;;;;;9.20;100.00;98391.31;7392178;19;20727;-70
2023/12/21 09:04:30;;;;;;;1.80;0.70;;;;;;;9.19;100.00;98379.16;7390883;19;20337;-71
2023/12/21 09:06:56;;;;;;;1.77;0.90;;;;;;;9.17;100.00;98376.72;7391135;19;20348;-70
2023/12/21 09:09:23;;;;;;;1.08;0.70;;;;;;;9.17;100.00;98382.00;7391527;19;20384;-71
2023/12/21 09:11:49;;;;;;;1.83;0.90;;;;;;;9.16;100.00;98366.38;7390353;19;20911;-70
2023/12/21 09:14:16;;;;;;;2.15;0.90;;;;;;;9.15;100.00;98383.25;7391878;19;20373;-70
2023/12/21 09:16:43;;;;;;;1.75;1.17;;;;;;;9.22;100.00;98330.28;7391549;19;20407;-70
2023/12/21 09:19:10;;;;;;;1.50;0.90;;;;;;;9.21;100.00;98340.06;7384901;19;20373;-71
2023/12/21 09:21:37;;;;;;;0.95;0.60;;;;;;;9.22;100.00;98362.81;7390051;19;20345;-70
2023/12/21 09:24:04;;;;;;;1.35;0.60;;;;;;;9.27;100.00;98335.72;7388675;19;20344;-70
2023/12/21 09:26:32;;;;;;;1.00;0.60;;;;;;;9.23;100.00;98356.50;7390724;19;20876;-70
2023/12/21 09:28:59;;;;;;;1.45;0.70;;;;;;;9.32;100.00;98347.22;7391395;19;20360;-70
2023/12/21 09:31:26;;;;;;;0.90;0.57;;;;;;;9.32;100.00;98312.03;7389986;19;20345;-70
2023/12/21 09:33:55;;;;;;;1.27;0.50;;;;;;;9.34;100.00;98313.41;7389479;19;20852;-70
2023/12/21 09:36:21;;;;;;;0.70;0.30;;;;;;;9.37;100.00;98291.81;7391520;19;20352;-70
2023/12/21 09:38:48;;;;;;;0.98;0.50;;;;;;;9.38;100.00;98301.34;7390029;19;20851;-71
2023/12/21 09:41:15;;;;;;;1.23;0.60;;;;;;;9.42;100.00;98282.38;7389693;19;20352;-71
2023/12/21 09:43:43;;;;;;;0.90;0.50;;;;;;;9.41;100.00;98286.03;7391246;19;20348;-71
2023/12/21 09:46:11;;;;;;;0.90;0.50;;;;;;;9.51;100.00;98291.59;7390844;19;20356;-70
2023/12/21 09:48:42;;;;;;;3.28;0.77;;;;;;;9.49;100.00;98268.00;7386898;19;20357;-70
2023/12/21 09:51:10;;;;;;;1.33;0.52;;;;;;;9.55;100.00;98242.47;7389647;19;20365;-71
2023/12/21 09:53:39;;;;;;;1.30;0.60;;;;;;;9.58;100.00;98260.53;7389772;19;20912;-70
2023/12/21 09:56:07;;;;;;;0.80;0.50;;;;;;;9.55;100.00;98263.66;7390829;19;20368;-70
2023/12/21 09:58:35;;;;;;;0.80;0.40;;;;;;;9.57;100.00;98266.88;7390403;19;20385;-70
2023/12/21 10:01:01;;;;;;;1.27;0.50;;;;;;;9.62;100.00;98214.03;7389365;19;20427;-71
2023/12/21 10:03:28;;;;;;;1.10;0.57;;;;;;;9.61;100.00;98225.69;7391099;19;20880;-71
2023/12/21 10:05:55;;;;;;;2.22;0.60;;;;;;;9.62;100.00;98208.75;7388653;19;20606;-71
2023/12/21 10:08:22;;;;;;;3.70;0.52;;;;;;;9.66;100.00;98203.81;7388204;19;20376;-72
2023/12/21 10:10:48;;;;;;;1.10;0.40;;;;;;;9.70;100.00;98189.88;7388482;19;20364;-71
2023/12/21 10:13:16;;;;;;;1.27;0.60;;;;;;;9.70;100.00;98205.75;7389835;19;21467;-71
2023/12/21 10:15:42;;;;;;;0.70;0.40;;;;;;;9.75;100.00;98184.72;7389434;19;20756;-71
2023/12/21 10:18:09;;;;;;;1.17;0.50;;;;;;;9.73;100.00;98192.09;7388703;19;20725;-72
2023/12/21 10:20:36;;;;;;;1.50;0.40;;;;;;;9.70;100.00;98192.53;7389578;19;20345;-71
2023/12/21 10:23:03;;;;;;;1.02;0.50;;;;;;;9.71;100.00;98143.03;7389095;19;20373;-70
2023/12/21 10:25:30;;;;;;;1.45;0.63;;;;;;;9.76;100.00;98138.66;7387682;19;20523;-70
2023/12/21 10:27:57;;;;;;;1.00;0.40;;;;;;;9.80;100.00;98146.94;7386619;19;20341;-69
2023/12/21 10:30:24;;;;;;;0.73;0.30;;;;;;;9.72;100.00;98149.94;7389143;19;20341;-70
2023/12/21 10:32:52;;;;;;;0.70;0.38;;;;;;;9.71;100.00;98161.56;7395772;19;20344;-70
2023/12/21 10:35:23;;;;;;;1.02;0.40;;;;;;;9.73;100.00;98140.94;7395422;19;20385;-69
2023/12/21 10:37:50;;;;;;;0.57;0.30;;;;;;;9.67;100.00;98097.69;7396843;19;20376;-70
2023/12/21 10:40:17;;;;;;;0.60;0.28;;;;;;;9.67;100.00;98124.19;7396600;19;20341;-70
2023/12/21 10:42:47;;;;;;;0.52;0.30;;;;;;;9.70;100.00;98110.47;7396196;19;20345;-69
2023/12/21 10:45:16;;;;;;;0.68;0.30;;;;;;;9.67;100.00;98095.06;7395581;19;20389;-70
2023/12/21 10:48:11;;;;;;;1.65;0.32;;;;;;;9.73;100.00;98094.13;7394353;19;20429;-70
2023/12/21 10:50:38;;;;;;;0.73;0.30;;;;;;;9.72;100.00;98118.97;7392786;19;20445;-71
2023/12/21 10:53:09;;;;;;;0.90;0.30;;;;;;;9.75;100.00;98076.16;7396500;19;20755;-70
2023/12/21 10:55:37;;;;;;;0.77;0.30;;;;;;;9.75;100.00;98086.75;7394999;19;20397;-70
2023/12/21 10:58:06;;;;;;;0.75;0.32;;;;;;;9.76;100.00;98048.66;7396652;19;20357;-69
2023/12/21 11:00:34;;;;;;;0.75;0.30;;;;;;;9.76;100.00;98061.88;7395585;19;20340;-69
2023/12/21 11:03:02;;;;;;;0.93;0.30;;;;;;;9.74;100.00;98048.06;7394880;19;20717;-69
2023/12/21 11:05:31;;;;;;;1.60;0.73;;;;;;;9.70;100.00;98044.28;7394652;19;20685;-71
2023/12/21 11:08:00;;;;;;;0.90;0.40;;;;;;;9.71;100.00;98051.19;7393480;19;20393;-70
2023/12/21 11:10:32;;;;;;;0.77;0.30;;;;;;;9.71;100.00;98031.84;7393690;19;20385;-70
2023/12/21 11:12:59;;;;;;;1.10;0.30;;;;;;;9.70;100.00;97999.28;7395026;19;20352;-69
2023/12/21 11:15:26;;;;;;;0.50;0.20;;;;;;;9.70;100.00;98017.81;7393559;19;20347;-70
2023/12/21 11:18:01;;;;;;;0.75;0.30;;;;;;;9.70;100.00;97995.84;7390181;19;20361;-68
2023/12/21 11:20:37;;;;;;;0.70;0.32;;;;;;;9.77;100.00;98007.09;7393014;19;20345;-69
2023/12/21 11:23:13;;;;;;;0.82;0.40;;;;;;;9.77;100.00;98004.44;7393742;19;20485;-68
2023/12/21 11:25:40;;;;;;;0.93;0.40;;;;;;;9.73;100.00;97977.66;7395307;19;20356;-68
2023/12/21 11:28:08;;;;;;;1.30;0.47;;;;;;;9.77;100.00;97973.47;7392010;19;20349;-68
2023/12/21 11:30:35;;;;;;;1.05;0.52;;;;;;;9.76;100.00;97971.88;7393804;19;20353;-68
2023/12/21 11:33:09;;;;;;;2.05;0.40;;;;;;;9.77;100.00;97957.56;7395199;19;20918;-69